Tonsberg — 9HA2066 — position and weather

sailwx.info

Track history (hours):
 
Tides and Currents Weather Stations Pressure Air Temp Water Temp Dewpoint Dewpoint Depression Visibility Wind Speed Wind Dir Waves Ship Positions

Tonsberg

Last reported at 2018-May-25 01:30 UTC. Time now 2018-May-25 01:31 UTC.
Position N 09°27' W 079°52'.

Length 265 m; draft 10.8 m.

Type: Cargo ship. MMSI: 249904000.

Date/timePositionNaut miles runAvg speedWind from/ knotsBaromVisibWave heightAir tempDewpointWater temp
2018-May-25 01:30N 09°27' W 079°52'0 0.0
2018-May-25 00:59N 09°27' W 079°52'0 0.0
2018-May-25 00:24N 09°27' W 079°52'0 0.0
2018-May-24 23:48N 09°27' W 079°52'0 0.3
2018-May-24 23:30N 09°27' W 079°52'2 3.2
2018-May-24 23:00N 09°26' W 079°53'4 8.8
2018-May-24 22:30N 09°23' W 079°55'4 7.1
2018-May-24 22:01N 09°19' W 079°55'2 4.5
2018-May-24 21:30N 09°17' W 079°55'0 0.5
2018-May-24 21:00N 09°17' W 079°55'0 0.4
2018-May-24 20:29N 09°16' W 079°55'0 0.5
2018-May-24 20:00N 09°16' W 079°55'1 1.0
2018-May-24 19:31N 09°16' W 079°55'3 5.3
2018-May-24 19:00N 09°13' W 079°55'  
2018-May-17 04:55N 32°22' W 117°43'1012.5
2018-May-17 04:08N 32°32' W 117°47'213.7
2018-May-17 03:58N 32°34' W 117°48'816.6
2018-May-17 03:30N 32°41' W 117°51'1217.2
2018-May-17 02:50N 32°52' W 117°55'516.9
2018-May-17 02:30N 32°57' W 117°57'714.2
2018-May-17 01:59N 33°04' W 118°00'611.6
2018-May-17 01:30N 33°10' W 118°02'612.0
2018-May-17 01:00N 33°15' W 118°05'1512.0
2018-May-16 23:45N 33°29' W 118°11'312.0
2018-May-16 23:30N 33°32' W 118°12'611.3
2018-May-16 23:00N 33°38' W 118°13'511.0
2018-May-16 22:30N 33°43' W 118°11'2 3.6
2018-May-16 21:59N 33°45' W 118°12'0 0.0
2018-May-16 21:29N 33°45' W 118°12'0 0.0
2018-May-16 20:59N 33°45' W 118°12'0 0.0
2018-May-16 20:29N 33°45' W 118°12'0 0.0
2018-May-16 19:59N 33°45' W 118°12'0 0.0
2018-May-16 19:29N 33°45' W 118°12'0 0.0
2018-May-16 18:59N 33°45' W 118°12'0 0.0
2018-May-16 18:29N 33°45' W 118°12'0 0.0
2018-May-16 17:59N 33°45' W 118°12'0 0.0
2018-May-16 17:29N 33°45' W 118°12'0 0.0
2018-May-16 16:59N 33°45' W 118°12'0 0.0
2018-May-16 16:29N 33°45' W 118°12'0 0.0
2018-May-16 15:59N 33°45' W 118°12'0 0.0
2018-May-16 15:29N 33°45' W 118°12'0 0.0
2018-May-16 14:59N 33°45' W 118°12'0 0.0
2018-May-16 14:29N 33°45' W 118°12'0 0.0
2018-May-16 13:59N 33°45' W 118°12'0 0.0
2018-May-16 13:26N 33°45' W 118°12'0 0.0
2018-May-16 12:59N 33°45' W 118°12'0 0.0
2018-May-16 12:29N 33°45' W 118°12'0 0.0
2018-May-16 11:59N 33°45' W 118°12'0 0.0
2018-May-16 11:29N 33°45' W 118°12'0 0.0
2018-May-16 10:59N 33°45' W 118°12'0 0.0
2018-May-16 10:29N 33°45' W 118°12'0 0.0
2018-May-16 09:59N 33°45' W 118°12'0 0.0
2018-May-16 09:26N 33°45' W 118°12'0 0.0
2018-May-16 08:59N 33°45' W 118°12'0 0.0
2018-May-16 08:29N 33°45' W 118°12'0 0.0
2018-May-16 07:59N 33°45' W 118°12'0 0.0
2018-May-16 07:29N 33°45' W 118°12'0 0.0
2018-May-16 06:53N 33°45' W 118°12'0 0.0
2018-May-16 06:29N 33°45' W 118°12'0 0.0
2018-May-16 05:50N 33°45' W 118°12'0 0.0
2018-May-16 05:26N 33°45' W 118°12'0 0.0
2018-May-16 04:59N 33°45' W 118°12'0 0.0
2018-May-16 04:26N 33°45' W 118°12'0 0.0
2018-May-16 03:53N 33°45' W 118°12'0 0.0
2018-May-16 03:29N 33°45' W 118°12'0 0.0
2018-May-16 02:59N 33°45' W 118°12'0 0.0
2018-May-16 02:29N 33°45' W 118°12'0 0.0
2018-May-16 01:59N 33°45' W 118°12'0 0.0
2018-May-16 01:26N 33°45' W 118°12'0 0.0
2018-May-16 00:59N 33°45' W 118°12'0 0.0
2018-May-16 00:29N 33°45' W 118°12'0 0.0
2018-May-15 23:59N 33°45' W 118°12'0 0.5
2018-May-15 23:30N 33°45' W 118°12'3 5.4
2018-May-15 23:00N 33°42' W 118°11'4 8.2
2018-May-15 22:30N 33°38' W 118°12'5 9.2
2018-May-15 22:00N 33°36' W 118°17'610.3
2018-May-15 21:24N 33°38' W 118°24'2211.1
2018-May-15 19:25N 33°49' W 118°47'410.9
2018-May-15 19:00N 33°51' W 118°52'511.0
2018-May-15 18:30N 33°54' W 118°58'611.0
2018-May-15 18:00N 33°56' W 119°03'611.0
2018-May-15 17:28N 33°59' W 119°09'510.9
2018-May-15 16:59N 34°02' W 119°15'610.6
2018-May-15 16:23N 34°04' W 119°22'410.7
2018-May-15 16:00N 34°05' W 119°27'510.7
2018-May-15 15:30N 34°06' W 119°33'611.4
2018-May-15 15:00N 34°08' W 119°40'611.3
2018-May-15 14:29N 34°09' W 119°47'611.0
2018-May-15 13:59N 34°11' W 119°53'611.3
2018-May-15 13:28N 34°12' W 120°00'511.5
2018-May-15 13:00N 34°14' W 120°06'611.6
2018-May-15 12:29N 34°15' W 120°13'611.6
2018-May-15 12:00N 34°17' W 120°20'611.4
2018-May-15 11:29N 34°18' W 120°27'511.0
2018-May-15 10:59N 34°20' W 120°33'611.1
2018-May-15 10:29N 34°21' W 120°40'511.1
2018-May-15 10:00N 34°22' W 120°46'511.0
2018-May-15 09:30N 34°24' W 120°52'510.9
2018-May-15 09:00N 34°28' W 120°57'611.3
2018-May-15 08:30N 34°32' W 121°01'611.0
2018-May-15 08:00N 34°37' W 121°05'511.0
2018-May-15 07:30N 34°41' W 121°09'611.3
2018-May-15 07:00N 34°46' W 121°13'611.7
2018-May-15 06:30N 34°50' W 121°18'611.1
2018-May-15 06:00N 34°54' W 121°22'611.0
2018-May-15 05:30N 34°59' W 121°26'510.9
2018-May-15 05:00N 35°03' W 121°31'  
Track history (hours):
 
Tides and Currents Weather Stations Pressure Air Temp Water Temp Dewpoint Dewpoint Depression Visibility Wind Speed Wind Dir Waves Ship Positions

Tonsberg

Last reported at 2018-May-25 01:30 UTC. Time now 2018-May-25 01:31 UTC.
Position N 09°27' W 079°52'.

Length 265 m; draft 10.8 m.

Type: Cargo ship. MMSI: 249904000.

Date/timePositionNaut miles runAvg speedWind from/ knotsBaromVisibWave heightAir tempDewpointWater temp
2018-May-25 01:30N 09°27' W 079°52'0 0.0
2018-May-25 00:59N 09°27' W 079°52'0 0.0
2018-May-25 00:24N 09°27' W 079°52'0 0.0
2018-May-24 23:48N 09°27' W 079°52'0 0.3
2018-May-24 23:30N 09°27' W 079°52'2 3.2
2018-May-24 23:00N 09°26' W 079°53'4 8.8
2018-May-24 22:30N 09°23' W 079°55'4 7.1
2018-May-24 22:01N 09°19' W 079°55'2 4.5
2018-May-24 21:30N 09°17' W 079°55'0 0.5
2018-May-24 21:00N 09°17' W 079°55'0 0.4
2018-May-24 20:29N 09°16' W 079°55'0 0.5
2018-May-24 20:00N 09°16' W 079°55'1 1.0
2018-May-24 19:31N 09°16' W 079°55'3 5.3
2018-May-24 19:00N 09°13' W 079°55'  
2018-May-17 04:55N 32°22' W 117°43'1012.5
2018-May-17 04:08N 32°32' W 117°47'213.7
2018-May-17 03:58N 32°34' W 117°48'816.6
2018-May-17 03:30N 32°41' W 117°51'1217.2
2018-May-17 02:50N 32°52' W 117°55'516.9
2018-May-17 02:30N 32°57' W 117°57'714.2
2018-May-17 01:59N 33°04' W 118°00'611.6
2018-May-17 01:30N 33°10' W 118°02'612.0
2018-May-17 01:00N 33°15' W 118°05'1512.0
2018-May-16 23:45N 33°29' W 118°11'312.0
2018-May-16 23:30N 33°32' W 118°12'611.3
2018-May-16 23:00N 33°38' W 118°13'511.0
2018-May-16 22:30N 33°43' W 118°11'2 3.6
2018-May-16 21:59N 33°45' W 118°12'0 0.0
2018-May-16 21:29N 33°45' W 118°12'0 0.0
2018-May-16 20:59N 33°45' W 118°12'0 0.0
2018-May-16 20:29N 33°45' W 118°12'0 0.0
2018-May-16 19:59N 33°45' W 118°12'0 0.0
2018-May-16 19:29N 33°45' W 118°12'0 0.0
2018-May-16 18:59N 33°45' W 118°12'0 0.0
2018-May-16 18:29N 33°45' W 118°12'0 0.0
2018-May-16 17:59N 33°45' W 118°12'0 0.0
2018-May-16 17:29N 33°45' W 118°12'0 0.0
2018-May-16 16:59N 33°45' W 118°12'0 0.0
2018-May-16 16:29N 33°45' W 118°12'0 0.0
2018-May-16 15:59N 33°45' W 118°12'0 0.0
2018-May-16 15:29N 33°45' W 118°12'0 0.0
2018-May-16 14:59N 33°45' W 118°12'0 0.0
2018-May-16 14:29N 33°45' W 118°12'0 0.0
2018-May-16 13:59N 33°45' W 118°12'0 0.0
2018-May-16 13:26N 33°45' W 118°12'0 0.0
2018-May-16 12:59N 33°45' W 118°12'0 0.0
2018-May-16 12:29N 33°45' W 118°12'0 0.0
2018-May-16 11:59N 33°45' W 118°12'0 0.0
2018-May-16 11:29N 33°45' W 118°12'0 0.0
2018-May-16 10:59N 33°45' W 118°12'0 0.0
2018-May-16 10:29N 33°45' W 118°12'0 0.0
2018-May-16 09:59N 33°45' W 118°12'0 0.0
2018-May-16 09:26N 33°45' W 118°12'0 0.0
2018-May-16 08:59N 33°45' W 118°12'0 0.0
2018-May-16 08:29N 33°45' W 118°12'0 0.0
2018-May-16 07:59N 33°45' W 118°12'0 0.0
2018-May-16 07:29N 33°45' W 118°12'0 0.0
2018-May-16 06:53N 33°45' W 118°12'0 0.0
2018-May-16 06:29N 33°45' W 118°12'0 0.0
2018-May-16 05:50N 33°45' W 118°12'0 0.0
2018-May-16 05:26N 33°45' W 118°12'0 0.0
2018-May-16 04:59N 33°45' W 118°12'0 0.0
2018-May-16 04:26N 33°45' W 118°12'0 0.0
2018-May-16 03:53N 33°45' W 118°12'0 0.0
2018-May-16 03:29N 33°45' W 118°12'0 0.0
2018-May-16 02:59N 33°45' W 118°12'0 0.0
2018-May-16 02:29N 33°45' W 118°12'0 0.0
2018-May-16 01:59N 33°45' W 118°12'0 0.0
2018-May-16 01:26N 33°45' W 118°12'0 0.0
2018-May-16 00:59N 33°45' W 118°12'0 0.0
2018-May-16 00:29N 33°45' W 118°12'0 0.0
2018-May-15 23:59N 33°45' W 118°12'0 0.5
2018-May-15 23:30N 33°45' W 118°12'3 5.4
2018-May-15 23:00N 33°42' W 118°11'4 8.2
2018-May-15 22:30N 33°38' W 118°12'5 9.2
2018-May-15 22:00N 33°36' W 118°17'610.3
2018-May-15 21:24N 33°38' W 118°24'2211.1
2018-May-15 19:25N 33°49' W 118°47'410.9
2018-May-15 19:00N 33°51' W 118°52'511.0
2018-May-15 18:30N 33°54' W 118°58'611.0
2018-May-15 18:00N 33°56' W 119°03'611.0
2018-May-15 17:28N 33°59' W 119°09'510.9
2018-May-15 16:59N 34°02' W 119°15'610.6
2018-May-15 16:23N 34°04' W 119°22'410.7
2018-May-15 16:00N 34°05' W 119°27'510.7
2018-May-15 15:30N 34°06' W 119°33'611.4
2018-May-15 15:00N 34°08' W 119°40'611.3
2018-May-15 14:29N 34°09' W 119°47'611.0
2018-May-15 13:59N 34°11' W 119°53'611.3
2018-May-15 13:28N 34°12' W 120°00'511.5
2018-May-15 13:00N 34°14' W 120°06'611.6
2018-May-15 12:29N 34°15' W 120°13'611.6
2018-May-15 12:00N 34°17' W 120°20'611.4
2018-May-15 11:29N 34°18' W 120°27'511.0
2018-May-15 10:59N 34°20' W 120°33'611.1
2018-May-15 10:29N 34°21' W 120°40'511.1
2018-May-15 10:00N 34°22' W 120°46'511.0
2018-May-15 09:30N 34°24' W 120°52'510.9
2018-May-15 09:00N 34°28' W 120°57'611.3
2018-May-15 08:30N 34°32' W 121°01'611.0
2018-May-15 08:00N 34°37' W 121°05'511.0
2018-May-15 07:30N 34°41' W 121°09'611.3
2018-May-15 07:00N 34°46' W 121°13'611.7
2018-May-15 06:30N 34°50' W 121°18'611.1
2018-May-15 06:00N 34°54' W 121°22'611.0
2018-May-15 05:30N 34°59' W 121°26'510.9
2018-May-15 05:00N 35°03' W 121°31'  

Dump ship's entire track history